X  Fermer Données météorologiques d'aviation de Metar     LFPN Toussus-le-Noble Airport
Température
17°C Température
10°C Point de rosée
64% Humidité



Vent
11 KM/H
7 MPH
3 M/S
6 KTS



10°
N
Conditions actuelles

Clair Clair
Pression 1014.9 (hPa) - 29.97 (inHg)
Visibilité 6 (mile) - 9.7 (km)
Aéroport
Code de l'aéroport LFPN

Emplacement: Toussus-le-Noble Airport
Distance: 14 (km)

Metar:
LFPN 121830Z AUTO 01006KT CAVOK 17/10 Q1015 NOSIG

Temps: 12-07-2024 20:30 CEST